Terminal Aerodrome Forecast
Issued by NWS

Home | Current Version | Previous Version | Text Only | Print | Product List | Glossary On
Versions: 1 2 3 4 5 6 7 8 9 10 11 12 13 14 15 16 17 18 19 20 21 22 23 24 25 26 27 28 29
000
FTUS46 KHNX 260416 AAB
TAFVIS
TAF AMD
KVIS 260416Z 2604/2624 VRB04KT 1/2SM FG VV002
     FM260800 VRB02KT 1SM BR OVC004
     FM262000 VRB03KT 3SM BR OVC005
     FM262200 VRB04KT 4SM HZ OVC007=

USA.gov is the U.S. government's official web portal to all federal, state and local government web resources and services.